sensor_id;sensor_type;location;lat;lon;timestamp;P1;durP1;ratioP1;P2;durP2;ratioP2
42018;SDS011;27703;51.980;5.848;2022-10-22T00:00:55;2.45;;;0.80;;
42018;SDS011;27703;51.980;5.848;2022-10-22T00:03:21;1.90;;;0.80;;
42018;SDS011;27703;51.980;5.848;2022-10-22T00:05:47;1.50;;;0.77;;
42018;SDS011;27703;51.980;5.848;2022-10-22T00:08:12;2.15;;;0.65;;
42018;SDS011;27703;51.980;5.848;2022-10-22T00:10:38;3.17;;;0.80;;
42018;SDS011;27703;51.980;5.848;2022-10-22T00:13:04;1.77;;;0.70;;
42018;SDS011;27703;51.980;5.848;2022-10-22T00:15:30;1.70;;;0.77;;
42018;SDS011;27703;51.980;5.848;2022-10-22T00:17:56;3.05;;;0.73;;
42018;SDS011;27703;51.980;5.848;2022-10-22T00:20:22;3.63;;;0.93;;
42018;SDS011;27703;51.980;5.848;2022-10-22T00:22:47;3.83;;;1.00;;
42018;SDS011;27703;51.980;5.848;2022-10-22T00:25:13;3.15;;;0.80;;
42018;SDS011;27703;51.980;5.848;2022-10-22T00:27:39;2.28;;;1.15;;
42018;SDS011;27703;51.980;5.848;2022-10-22T00:30:05;1.83;;;0.93;;
42018;SDS011;27703;51.980;5.848;2022-10-22T00:32:31;2.58;;;0.70;;
42018;SDS011;27703;51.980;5.848;2022-10-22T00:34:56;2.35;;;0.95;;
42018;SDS011;27703;51.980;5.848;2022-10-22T00:37:22;2.08;;;1.08;;
42018;SDS011;27703;51.980;5.848;2022-10-22T00:39:48;3.35;;;0.70;;
42018;SDS011;27703;51.980;5.848;2022-10-22T00:42:18;1.58;;;0.55;;
42018;SDS011;27703;51.980;5.848;2022-10-22T00:47:27;1.57;;;0.70;;
42018;SDS011;27703;51.980;5.848;2022-10-22T00:49:56;4.97;;;0.98;;
42018;SDS011;27703;51.980;5.848;2022-10-22T00:52:22;7.97;;;7.10;;
42018;SDS011;27703;51.980;5.848;2022-10-22T00:54:49;11.20;;;9.20;;
42018;SDS011;27703;51.980;5.848;2022-10-22T00:57:15;14.65;;;8.07;;
42018;SDS011;27703;51.980;5.848;2022-10-22T00:59:43;11.60;;;7.85;;
42018;SDS011;27703;51.980;5.848;2022-10-22T01:02:08;8.35;;;5.20;;
42018;SDS011;27703;51.980;5.848;2022-10-22T01:04:34;7.85;;;5.50;;
42018;SDS011;27703;51.980;5.848;2022-10-22T01:06:59;5.93;;;3.72;;
42018;SDS011;27703;51.980;5.848;2022-10-22T01:12:18;3.90;;;2.53;;
42018;SDS011;27703;51.980;5.848;2022-10-22T01:15:12;4.00;;;2.55;;
42018;SDS011;27703;51.980;5.848;2022-10-22T01:17:48;6.18;;;3.40;;
42018;SDS011;27703;51.980;5.848;2022-10-22T01:23:13;4.00;;;1.48;;
42018;SDS011;27703;51.980;5.848;2022-10-22T01:31:12;2.17;;;1.33;;
42018;SDS011;27703;51.980;5.848;2022-10-22T01:33:40;3.60;;;1.10;;
42018;SDS011;27703;51.980;5.848;2022-10-22T01:36:10;2.97;;;1.08;;
42018;SDS011;27703;51.980;5.848;2022-10-22T01:38:36;3.88;;;1.85;;
42018;SDS011;27703;51.980;5.848;2022-10-22T01:41:03;2.85;;;1.40;;
42018;SDS011;27703;51.980;5.848;2022-10-22T01:43:29;2.17;;;1.15;;
42018;SDS011;27703;51.980;5.848;2022-10-22T01:45:56;5.78;;;1.20;;
42018;SDS011;27703;51.980;5.848;2022-10-22T01:54:17;2.22;;;1.33;;
42018;SDS011;27703;51.980;5.848;2022-10-22T01:57:29;5.80;;;1.50;;
42018;SDS011;27703;51.980;5.848;2022-10-22T02:00:15;3.60;;;1.98;;
42018;SDS011;27703;51.980;5.848;2022-10-22T02:02:45;4.50;;;2.00;;
42018;SDS011;27703;51.980;5.848;2022-10-22T02:08:03;5.60;;;2.28;;
42018;SDS011;27703;51.980;5.848;2022-10-22T02:10:34;3.65;;;1.60;;
42018;SDS011;27703;51.980;5.848;2022-10-22T02:13:02;4.93;;;2.28;;
42018;SDS011;27703;51.980;5.848;2022-10-22T02:15:32;2.65;;;1.40;;
42018;SDS011;27703;51.980;5.848;2022-10-22T02:18:00;2.42;;;1.20;;
42018;SDS011;27703;51.980;5.848;2022-10-22T02:20:29;2.17;;;1.08;;
42018;SDS011;27703;51.980;5.848;2022-10-22T02:22:56;4.82;;;1.63;;
42018;SDS011;27703;51.980;5.848;2022-10-22T02:25:24;3.30;;;1.42;;
42018;SDS011;27703;51.980;5.848;2022-10-22T02:27:57;3.78;;;2.03;;
42018;SDS011;27703;51.980;5.848;2022-10-22T02:30:31;5.07;;;1.75;;
42018;SDS011;27703;51.980;5.848;2022-10-22T02:33:01;2.28;;;1.30;;
42018;SDS011;27703;51.980;5.848;2022-10-22T02:35:36;4.13;;;1.20;;
42018;SDS011;27703;51.980;5.848;2022-10-22T02:38:05;2.67;;;1.30;;
42018;SDS011;27703;51.980;5.848;2022-10-22T02:40:31;2.50;;;1.08;;
42018;SDS011;27703;51.980;5.848;2022-10-22T02:42:57;2.75;;;1.40;;
42018;SDS011;27703;51.980;5.848;2022-10-22T02:45:23;3.67;;;1.73;;
42018;SDS011;27703;51.980;5.848;2022-10-22T02:47:48;7.00;;;2.65;;
42018;SDS011;27703;51.980;5.848;2022-10-22T02:50:14;2.45;;;1.27;;
42018;SDS011;27703;51.980;5.848;2022-10-22T02:52:39;5.53;;;1.73;;
42018;SDS011;27703;51.980;5.848;2022-10-22T02:55:05;3.03;;;1.30;;
42018;SDS011;27703;51.980;5.848;2022-10-22T02:57:31;2.83;;;1.27;;
42018;SDS011;27703;51.980;5.848;2022-10-22T02:59:57;3.08;;;1.45;;
42018;SDS011;27703;51.980;5.848;2022-10-22T03:02:22;3.13;;;1.10;;
42018;SDS011;27703;51.980;5.848;2022-10-22T03:04:48;3.63;;;1.70;;
42018;SDS011;27703;51.980;5.848;2022-10-22T03:07:13;3.33;;;1.23;;
42018;SDS011;27703;51.980;5.848;2022-10-22T03:09:39;3.10;;;1.15;;
42018;SDS011;27703;51.980;5.848;2022-10-22T03:12:05;5.30;;;1.58;;
42018;SDS011;27703;51.980;5.848;2022-10-22T03:14:32;2.00;;;1.17;;
42018;SDS011;27703;51.980;5.848;2022-10-22T03:16:58;4.22;;;1.40;;
42018;SDS011;27703;51.980;5.848;2022-10-22T03:19:23;7.38;;;1.05;;
42018;SDS011;27703;51.980;5.848;2022-10-22T03:21:56;3.33;;;1.70;;
42018;SDS011;27703;51.980;5.848;2022-10-22T03:24:34;5.28;;;1.35;;
42018;SDS011;27703;51.980;5.848;2022-10-22T03:27:08;3.38;;;1.08;;
42018;SDS011;27703;51.980;5.848;2022-10-22T03:29:35;3.15;;;1.15;;
42018;SDS011;27703;51.980;5.848;2022-10-22T03:32:02;5.05;;;0.90;;
42018;SDS011;27703;51.980;5.848;2022-10-22T03:34:28;4.13;;;1.52;;
42018;SDS011;27703;51.980;5.848;2022-10-22T03:36:53;3.78;;;1.33;;
42018;SDS011;27703;51.980;5.848;2022-10-22T03:39:23;5.50;;;0.95;;
42018;SDS011;27703;51.980;5.848;2022-10-22T03:41:49;2.38;;;1.20;;
42018;SDS011;27703;51.980;5.848;2022-10-22T03:44:16;3.35;;;1.55;;
42018;SDS011;27703;51.980;5.848;2022-10-22T03:46:42;2.85;;;0.80;;
42018;SDS011;27703;51.980;5.848;2022-10-22T03:49:08;1.80;;;0.93;;
42018;SDS011;27703;51.980;5.848;2022-10-22T03:51:34;9.52;;;1.15;;
42018;SDS011;27703;51.980;5.848;2022-10-22T03:53:59;5.25;;;0.98;;
42018;SDS011;27703;51.980;5.848;2022-10-22T03:56:25;3.58;;;0.73;;
42018;SDS011;27703;51.980;5.848;2022-10-22T03:58:54;2.17;;;0.90;;
42018;SDS011;27703;51.980;5.848;2022-10-22T04:01:24;3.25;;;0.93;;
42018;SDS011;27703;51.980;5.848;2022-10-22T04:03:50;1.80;;;0.80;;
42018;SDS011;27703;51.980;5.848;2022-10-22T04:06:16;2.50;;;0.75;;
42018;SDS011;27703;51.980;5.848;2022-10-22T04:08:42;3.22;;;0.75;;
42018;SDS011;27703;51.980;5.848;2022-10-22T04:11:09;6.03;;;0.98;;
42018;SDS011;27703;51.980;5.848;2022-10-22T04:13:35;2.63;;;0.90;;
42018;SDS011;27703;51.980;5.848;2022-10-22T04:16:08;4.05;;;0.88;;
42018;SDS011;27703;51.980;5.848;2022-10-22T04:18:34;4.18;;;0.73;;
42018;SDS011;27703;51.980;5.848;2022-10-22T04:21:00;2.45;;;0.88;;
42018;SDS011;27703;51.980;5.848;2022-10-22T04:23:26;3.03;;;0.80;;
42018;SDS011;27703;51.980;5.848;2022-10-22T04:26:01;4.60;;;1.05;;
42018;SDS011;27703;51.980;5.848;2022-10-22T04:28:29;2.53;;;0.70;;
42018;SDS011;27703;51.980;5.848;2022-10-22T04:30:55;2.38;;;0.85;;
42018;SDS011;27703;51.980;5.848;2022-10-22T04:33:21;5.25;;;1.20;;
42018;SDS011;27703;51.980;5.848;2022-10-22T04:35:46;6.28;;;1.33;;
42018;SDS011;27703;51.980;5.848;2022-10-22T04:38:12;4.50;;;0.70;;
42018;SDS011;27703;51.980;5.848;2022-10-22T04:40:37;2.45;;;0.60;;
42018;SDS011;27703;51.980;5.848;2022-10-22T04:43:03;2.20;;;0.70;;
42018;SDS011;27703;51.980;5.848;2022-10-22T04:45:28;3.90;;;0.70;;
42018;SDS011;27703;51.980;5.848;2022-10-22T04:47:54;2.20;;;0.70;;
42018;SDS011;27703;51.980;5.848;2022-10-22T04:50:20;1.67;;;0.77;;
42018;SDS011;27703;51.980;5.848;2022-10-22T04:52:46;1.45;;;0.50;;
42018;SDS011;27703;51.980;5.848;2022-10-22T04:55:11;3.03;;;0.60;;
42018;SDS011;27703;51.980;5.848;2022-10-22T04:57:37;3.03;;;1.17;;
42018;SDS011;27703;51.980;5.848;2022-10-22T05:00:03;2.75;;;0.80;;
42018;SDS011;27703;51.980;5.848;2022-10-22T05:02:29;4.55;;;1.00;;
42018;SDS011;27703;51.980;5.848;2022-10-22T05:04:54;5.57;;;1.45;;
42018;SDS011;27703;51.980;5.848;2022-10-22T05:07:20;4.65;;;2.05;;
42018;SDS011;27703;51.980;5.848;2022-10-22T05:09:45;4.35;;;1.25;;
42018;SDS011;27703;51.980;5.848;2022-10-22T05:12:11;4.50;;;1.00;;
42018;SDS011;27703;51.980;5.848;2022-10-22T05:14:36;2.80;;;1.00;;
42018;SDS011;27703;51.980;5.848;2022-10-22T05:17:02;5.50;;;1.70;;
42018;SDS011;27703;51.980;5.848;2022-10-22T05:19:28;3.08;;;1.02;;
42018;SDS011;27703;51.980;5.848;2022-10-22T05:22:01;4.20;;;1.30;;
42018;SDS011;27703;51.980;5.848;2022-10-22T05:24:28;1.80;;;1.10;;
42018;SDS011;27703;51.980;5.848;2022-10-22T05:26:55;4.38;;;1.30;;
42018;SDS011;27703;51.980;5.848;2022-10-22T05:29:22;7.45;;;1.60;;
42018;SDS011;27703;51.980;5.848;2022-10-22T05:31:48;6.35;;;1.08;;
42018;SDS011;27703;51.980;5.848;2022-10-22T05:34:14;3.78;;;1.20;;
42018;SDS011;27703;51.980;5.848;2022-10-22T05:36:41;3.30;;;1.10;;
42018;SDS011;27703;51.980;5.848;2022-10-22T05:39:07;3.78;;;1.25;;
42018;SDS011;27703;51.980;5.848;2022-10-22T05:41:33;4.57;;;1.15;;
42018;SDS011;27703;51.980;5.848;2022-10-22T05:44:02;2.58;;;0.75;;
42018;SDS011;27703;51.980;5.848;2022-10-22T05:46:29;3.08;;;0.93;;
42018;SDS011;27703;51.980;5.848;2022-10-22T05:49:01;4.28;;;0.90;;
42018;SDS011;27703;51.980;5.848;2022-10-22T05:51:29;7.38;;;1.15;;
42018;SDS011;27703;51.980;5.848;2022-10-22T05:53:56;3.53;;;1.40;;
42018;SDS011;27703;51.980;5.848;2022-10-22T05:56:23;6.72;;;1.52;;
42018;SDS011;27703;51.980;5.848;2022-10-22T05:58:50;2.88;;;1.02;;
42018;SDS011;27703;51.980;5.848;2022-10-22T06:01:17;4.38;;;1.63;;
42018;SDS011;27703;51.980;5.848;2022-10-22T06:03:55;2.70;;;0.80;;
42018;SDS011;27703;51.980;5.848;2022-10-22T06:06:28;4.33;;;1.00;;
42018;SDS011;27703;51.980;5.848;2022-10-22T06:08:55;4.68;;;1.10;;
42018;SDS011;27703;51.980;5.848;2022-10-22T06:11:25;3.78;;;1.17;;
42018;SDS011;27703;51.980;5.848;2022-10-22T06:13:51;4.32;;;1.20;;
42018;SDS011;27703;51.980;5.848;2022-10-22T06:16:17;6.43;;;1.17;;
42018;SDS011;27703;51.980;5.848;2022-10-22T06:18:43;1.92;;;0.90;;
42018;SDS011;27703;51.980;5.848;2022-10-22T06:21:11;4.90;;;1.20;;
42018;SDS011;27703;51.980;5.848;2022-10-22T06:23:39;2.13;;;0.77;;
42018;SDS011;27703;51.980;5.848;2022-10-22T06:26:06;9.20;;;1.20;;
42018;SDS011;27703;51.980;5.848;2022-10-22T06:28:32;2.92;;;1.10;;
42018;SDS011;27703;51.980;5.848;2022-10-22T06:31:00;5.25;;;1.10;;
42018;SDS011;27703;51.980;5.848;2022-10-22T06:33:26;4.95;;;1.25;;
42018;SDS011;27703;51.980;5.848;2022-10-22T06:35:53;5.07;;;1.52;;
42018;SDS011;27703;51.980;5.848;2022-10-22T06:38:18;7.57;;;1.70;;
42018;SDS011;27703;51.980;5.848;2022-10-22T06:40:44;6.05;;;2.13;;
42018;SDS011;27703;51.980;5.848;2022-10-22T06:43:11;3.38;;;1.08;;
42018;SDS011;27703;51.980;5.848;2022-10-22T06:45:37;3.83;;;1.05;;
42018;SDS011;27703;51.980;5.848;2022-10-22T06:48:03;3.75;;;1.65;;
42018;SDS011;27703;51.980;5.848;2022-10-22T06:50:29;5.40;;;1.45;;
42018;SDS011;27703;51.980;5.848;2022-10-22T06:52:54;3.67;;;0.98;;
42018;SDS011;27703;51.980;5.848;2022-10-22T06:55:21;5.55;;;1.35;;
42018;SDS011;27703;51.980;5.848;2022-10-22T06:57:46;7.75;;;2.15;;
42018;SDS011;27703;51.980;5.848;2022-10-22T07:00:12;4.68;;;1.58;;
42018;SDS011;27703;51.980;5.848;2022-10-22T07:02:38;8.50;;;1.98;;
42018;SDS011;27703;51.980;5.848;2022-10-22T07:05:04;6.00;;;1.40;;
42018;SDS011;27703;51.980;5.848;2022-10-22T07:07:29;3.97;;;1.33;;
42018;SDS011;27703;51.980;5.848;2022-10-22T07:09:55;7.43;;;1.77;;
42018;SDS011;27703;51.980;5.848;2022-10-22T07:12:20;6.70;;;1.70;;
42018;SDS011;27703;51.980;5.848;2022-10-22T07:14:46;6.53;;;1.25;;
42018;SDS011;27703;51.980;5.848;2022-10-22T07:17:13;5.22;;;1.13;;
42018;SDS011;27703;51.980;5.848;2022-10-22T07:19:38;7.18;;;1.95;;
42018;SDS011;27703;51.980;5.848;2022-10-22T07:22:04;4.85;;;1.33;;
42018;SDS011;27703;51.980;5.848;2022-10-22T07:24:29;8.68;;;2.35;;
42018;SDS011;27703;51.980;5.848;2022-10-22T07:26:55;3.45;;;1.48;;
42018;SDS011;27703;51.980;5.848;2022-10-22T07:29:20;4.13;;;1.27;;
42018;SDS011;27703;51.980;5.848;2022-10-22T07:31:46;4.95;;;1.08;;
42018;SDS011;27703;51.980;5.848;2022-10-22T07:34:11;5.30;;;1.92;;
42018;SDS011;27703;51.980;5.848;2022-10-22T07:36:37;9.57;;;2.33;;
42018;SDS011;27703;51.980;5.848;2022-10-22T07:39:03;8.02;;;2.28;;
42018;SDS011;27703;51.980;5.848;2022-10-22T07:41:28;8.05;;;2.25;;
42018;SDS011;27703;51.980;5.848;2022-10-22T07:43:55;5.13;;;1.70;;
42018;SDS011;27703;51.980;5.848;2022-10-22T07:46:21;10.73;;;2.30;;
42018;SDS011;27703;51.980;5.848;2022-10-22T07:48:48;5.55;;;1.67;;
42018;SDS011;27703;51.980;5.848;2022-10-22T07:51:14;8.45;;;2.38;;
42018;SDS011;27703;51.980;5.848;2022-10-22T07:53:40;6.18;;;1.58;;
42018;SDS011;27703;51.980;5.848;2022-10-22T07:56:06;5.00;;;0.95;;
42018;SDS011;27703;51.980;5.848;2022-10-22T07:58:32;7.72;;;1.60;;
42018;SDS011;27703;51.980;5.848;2022-10-22T08:00:58;7.95;;;1.85;;
42018;SDS011;27703;51.980;5.848;2022-10-22T08:03:25;8.82;;;1.65;;
42018;SDS011;27703;51.980;5.848;2022-10-22T08:05:51;9.65;;;1.55;;
42018;SDS011;27703;51.980;5.848;2022-10-22T08:08:17;9.05;;;2.03;;
42018;SDS011;27703;51.980;5.848;2022-10-22T08:10:43;9.05;;;2.03;;
42018;SDS011;27703;51.980;5.848;2022-10-22T08:13:10;6.97;;;1.98;;
42018;SDS011;27703;51.980;5.848;2022-10-22T08:15:35;7.15;;;1.55;;
42018;SDS011;27703;51.980;5.848;2022-10-22T08:18:01;8.75;;;1.75;;
42018;SDS011;27703;51.980;5.848;2022-10-22T08:20:27;7.07;;;2.10;;
42018;SDS011;27703;51.980;5.848;2022-10-22T08:22:53;9.68;;;1.55;;
42018;SDS011;27703;51.980;5.848;2022-10-22T08:25:18;8.57;;;1.25;;
42018;SDS011;27703;51.980;5.848;2022-10-22T08:27:44;7.28;;;2.15;;
42018;SDS011;27703;51.980;5.848;2022-10-22T08:30:10;7.97;;;0.95;;
42018;SDS011;27703;51.980;5.848;2022-10-22T08:32:36;5.60;;;1.25;;
42018;SDS011;27703;51.980;5.848;2022-10-22T08:35:02;11.80;;;1.95;;
42018;SDS011;27703;51.980;5.848;2022-10-22T08:37:28;7.85;;;1.25;;
42018;SDS011;27703;51.980;5.848;2022-10-22T08:39:53;5.60;;;1.02;;
42018;SDS011;27703;51.980;5.848;2022-10-22T08:43:06;5.72;;;1.40;;
42018;SDS011;27703;51.980;5.848;2022-10-22T08:45:29;7.10;;;1.15;;
42018;SDS011;27703;51.980;5.848;2022-10-22T08:50:41;7.55;;;1.48;;
42018;SDS011;27703;51.980;5.848;2022-10-22T08:53:14;7.53;;;1.20;;
42018;SDS011;27703;51.980;5.848;2022-10-22T08:55:46;8.10;;;1.08;;
42018;SDS011;27703;51.980;5.848;2022-10-22T08:58:19;7.35;;;1.20;;
42018;SDS011;27703;51.980;5.848;2022-10-22T09:01:05;11.95;;;1.40;;
42018;SDS011;27703;51.980;5.848;2022-10-22T09:03:35;8.35;;;0.88;;
42018;SDS011;27703;51.980;5.848;2022-10-22T09:06:30;4.85;;;0.60;;
42018;SDS011;27703;51.980;5.848;2022-10-22T09:08:57;3.22;;;0.80;;
42018;SDS011;27703;51.980;5.848;2022-10-22T09:11:31;9.82;;;1.27;;
42018;SDS011;27703;51.980;5.848;2022-10-22T09:13:59;10.85;;;1.38;;
42018;SDS011;27703;51.980;5.848;2022-10-22T09:16:32;7.55;;;1.35;;
42018;SDS011;27703;51.980;5.848;2022-10-22T09:24:32;10.40;;;0.75;;
42018;SDS011;27703;51.980;5.848;2022-10-22T09:29:26;11.02;;;0.93;;
42018;SDS011;27703;51.980;5.848;2022-10-22T09:31:57;7.57;;;0.82;;
42018;SDS011;27703;51.980;5.848;2022-10-22T09:34:23;7.80;;;0.70;;
42018;SDS011;27703;51.980;5.848;2022-10-22T09:36:58;6.20;;;0.60;;
42018;SDS011;27703;51.980;5.848;2022-10-22T09:39:28;8.00;;;0.90;;
42018;SDS011;27703;51.980;5.848;2022-10-22T09:42:05;6.57;;;0.95;;
42018;SDS011;27703;51.980;5.848;2022-10-22T09:44:36;7.90;;;0.70;;
42018;SDS011;27703;51.980;5.848;2022-10-22T09:47:05;7.40;;;0.50;;
42018;SDS011;27703;51.980;5.848;2022-10-22T09:49:33;7.93;;;1.23;;
42018;SDS011;27703;51.980;5.848;2022-10-22T09:52:00;8.20;;;1.00;;
42018;SDS011;27703;51.980;5.848;2022-10-22T09:59:31;11.02;;;0.85;;
42018;SDS011;27703;51.980;5.848;2022-10-22T10:01:59;9.00;;;0.82;;
42018;SDS011;27703;51.980;5.848;2022-10-22T10:04:39;7.10;;;1.33;;
42018;SDS011;27703;51.980;5.848;2022-10-22T10:07:14;15.15;;;1.52;;
42018;SDS011;27703;51.980;5.848;2022-10-22T10:09:47;10.52;;;1.17;;
42018;SDS011;27703;51.980;5.848;2022-10-22T10:12:22;5.75;;;0.68;;
42018;SDS011;27703;51.980;5.848;2022-10-22T10:20:18;11.98;;;1.40;;
42018;SDS011;27703;51.980;5.848;2022-10-22T10:29:22;7.57;;;0.70;;
42018;SDS011;27703;51.980;5.848;2022-10-22T10:37:58;8.15;;;0.73;;
42018;SDS011;27703;51.980;5.848;2022-10-22T10:40:46;7.65;;;1.13;;
42018;SDS011;27703;51.980;5.848;2022-10-22T10:46:04;4.30;;;0.80;;
42018;SDS011;27703;51.980;5.848;2022-10-22T10:48:48;8.38;;;1.10;;
42018;SDS011;27703;51.980;5.848;2022-10-22T11:07:46;9.00;;;1.42;;
42018;SDS011;27703;51.980;5.848;2022-10-22T11:13:08;6.55;;;1.10;;
42018;SDS011;27703;51.980;5.848;2022-10-22T11:15:50;10.70;;;1.02;;
42018;SDS011;27703;51.980;5.848;2022-10-22T11:18:29;9.20;;;1.00;;
42018;SDS011;27703;51.980;5.848;2022-10-22T11:24:48;7.90;;;0.85;;
42018;SDS011;27703;51.980;5.848;2022-10-22T11:26:48;11.10;;;1.15;;
42018;SDS011;27703;51.980;5.848;2022-10-22T11:29:32;6.55;;;0.60;;
42018;SDS011;27703;51.980;5.848;2022-10-22T11:32:03;10.00;;;0.85;;
42018;SDS011;27703;51.980;5.848;2022-10-22T11:34:35;14.63;;;0.95;;
42018;SDS011;27703;51.980;5.848;2022-10-22T11:37:08;5.47;;;0.60;;
42018;SDS011;27703;51.980;5.848;2022-10-22T11:39:38;10.57;;;1.10;;
42018;SDS011;27703;51.980;5.848;2022-10-22T11:42:10;10.00;;;1.20;;
42018;SDS011;27703;51.980;5.848;2022-10-22T11:45:29;11.55;;;1.00;;
42018;SDS011;27703;51.980;5.848;2022-10-22T11:48:25;9.95;;;0.57;;
42018;SDS011;27703;51.980;5.848;2022-10-22T11:53:25;4.72;;;0.60;;
42018;SDS011;27703;51.980;5.848;2022-10-22T11:56:20;6.43;;;0.95;;
42018;SDS011;27703;51.980;5.848;2022-10-22T11:58:48;5.33;;;0.40;;
42018;SDS011;27703;51.980;5.848;2022-10-22T12:01:20;5.63;;;0.50;;
42018;SDS011;27703;51.980;5.848;2022-10-22T12:06:26;10.75;;;0.80;;
42018;SDS011;27703;51.980;5.848;2022-10-22T12:16:38;9.10;;;0.75;;
42018;SDS011;27703;51.980;5.848;2022-10-22T12:19:20;5.32;;;0.50;;
42018;SDS011;27703;51.980;5.848;2022-10-22T12:22:16;6.20;;;0.60;;
42018;SDS011;27703;51.980;5.848;2022-10-22T12:24:48;10.15;;;0.73;;
42018;SDS011;27703;51.980;5.848;2022-10-22T12:29:45;5.38;;;0.95;;
42018;SDS011;27703;51.980;5.848;2022-10-22T12:32:12;5.90;;;0.30;;
42018;SDS011;27703;51.980;5.848;2022-10-22T12:34:49;5.18;;;0.50;;
42018;SDS011;27703;51.980;5.848;2022-10-22T12:37:16;7.18;;;0.50;;
42018;SDS011;27703;51.980;5.848;2022-10-22T12:39:43;13.52;;;1.02;;
42018;SDS011;27703;51.980;5.848;2022-10-22T12:42:13;5.43;;;0.52;;
42018;SDS011;27703;51.980;5.848;2022-10-22T12:44:44;8.88;;;0.75;;
42018;SDS011;27703;51.980;5.848;2022-10-22T12:47:12;4.75;;;0.52;;
42018;SDS011;27703;51.980;5.848;2022-10-22T12:49:41;5.00;;;0.45;;
42018;SDS011;27703;51.980;5.848;2022-10-22T12:52:15;5.85;;;0.50;;
42018;SDS011;27703;51.980;5.848;2022-10-22T12:54:44;5.60;;;0.40;;
42018;SDS011;27703;51.980;5.848;2022-10-22T12:57:12;5.22;;;0.60;;
42018;SDS011;27703;51.980;5.848;2022-10-22T12:59:40;7.28;;;0.40;;
42018;SDS011;27703;51.980;5.848;2022-10-22T13:02:16;6.35;;;0.47;;
42018;SDS011;27703;51.980;5.848;2022-10-22T13:07:41;6.22;;;1.08;;
42018;SDS011;27703;51.980;5.848;2022-10-22T13:10:24;5.97;;;0.47;;
42018;SDS011;27703;51.980;5.848;2022-10-22T13:12:54;4.07;;;0.40;;
42018;SDS011;27703;51.980;5.848;2022-10-22T13:18:02;8.55;;;0.65;;
42018;SDS011;27703;51.980;5.848;2022-10-22T13:20:31;5.00;;;0.35;;
42018;SDS011;27703;51.980;5.848;2022-10-22T13:23:01;4.13;;;0.40;;
42018;SDS011;27703;51.980;5.848;2022-10-22T13:25:29;6.43;;;0.70;;
42018;SDS011;27703;51.980;5.848;2022-10-22T13:28:19;12.30;;;0.55;;
42018;SDS011;27703;51.980;5.848;2022-10-22T13:30:56;10.13;;;1.20;;
42018;SDS011;27703;51.980;5.848;2022-10-22T13:36:04;7.13;;;0.63;;
42018;SDS011;27703;51.980;5.848;2022-10-22T13:38:30;5.63;;;1.20;;
42018;SDS011;27703;51.980;5.848;2022-10-22T13:40:56;6.90;;;0.70;;
42018;SDS011;27703;51.980;5.848;2022-10-22T13:43:23;10.05;;;1.00;;
42018;SDS011;27703;51.980;5.848;2022-10-22T13:45:51;4.90;;;0.43;;
42018;SDS011;27703;51.980;5.848;2022-10-22T13:48:19;12.82;;;1.35;;
42018;SDS011;27703;51.980;5.848;2022-10-22T13:50:48;10.70;;;1.05;;
42018;SDS011;27703;51.980;5.848;2022-10-22T13:53:15;8.13;;;0.95;;
42018;SDS011;27703;51.980;5.848;2022-10-22T13:55:44;8.20;;;0.57;;
42018;SDS011;27703;51.980;5.848;2022-10-22T13:58:11;10.30;;;0.85;;
42018;SDS011;27703;51.980;5.848;2022-10-22T14:00:40;16.88;;;1.05;;
42018;SDS011;27703;51.980;5.848;2022-10-22T14:03:12;11.75;;;0.73;;
42018;SDS011;27703;51.980;5.848;2022-10-22T14:05:40;7.07;;;0.80;;
42018;SDS011;27703;51.980;5.848;2022-10-22T14:08:13;12.25;;;0.90;;
42018;SDS011;27703;51.980;5.848;2022-10-22T14:10:41;12.38;;;1.38;;
42018;SDS011;27703;51.980;5.848;2022-10-22T14:13:08;6.57;;;0.73;;
42018;SDS011;27703;51.980;5.848;2022-10-22T14:15:34;6.25;;;0.43;;
42018;SDS011;27703;51.980;5.848;2022-10-22T14:18:00;8.80;;;0.57;;
42018;SDS011;27703;51.980;5.848;2022-10-22T14:20:28;5.80;;;1.00;;
42018;SDS011;27703;51.980;5.848;2022-10-22T14:22:55;12.65;;;0.95;;
42018;SDS011;27703;51.980;5.848;2022-10-22T14:25:25;6.38;;;0.75;;
42018;SDS011;27703;51.980;5.848;2022-10-22T14:27:50;8.13;;;0.98;;
42018;SDS011;27703;51.980;5.848;2022-10-22T14:30:20;4.38;;;0.70;;
42018;SDS011;27703;51.980;5.848;2022-10-22T14:32:47;8.20;;;0.95;;
42018;SDS011;27703;51.980;5.848;2022-10-22T14:35:14;6.45;;;0.60;;
42018;SDS011;27703;51.980;5.848;2022-10-22T14:37:42;7.65;;;0.77;;
42018;SDS011;27703;51.980;5.848;2022-10-22T14:40:08;4.45;;;0.40;;
42018;SDS011;27703;51.980;5.848;2022-10-22T14:42:38;8.18;;;0.50;;
42018;SDS011;27703;51.980;5.848;2022-10-22T14:45:05;6.72;;;0.60;;
42018;SDS011;27703;51.980;5.848;2022-10-22T14:47:37;3.75;;;0.80;;
42018;SDS011;27703;51.980;5.848;2022-10-22T14:50:02;4.40;;;0.80;;
42018;SDS011;27703;51.980;5.848;2022-10-22T14:52:28;6.32;;;1.00;;
42018;SDS011;27703;51.980;5.848;2022-10-22T14:54:54;5.93;;;1.38;;
42018;SDS011;27703;51.980;5.848;2022-10-22T14:57:19;8.68;;;1.25;;
42018;SDS011;27703;51.980;5.848;2022-10-22T14:59:45;10.27;;;0.95;;
42018;SDS011;27703;51.980;5.848;2022-10-22T15:02:11;6.25;;;0.63;;
42018;SDS011;27703;51.980;5.848;2022-10-22T15:04:37;7.43;;;0.50;;
42018;SDS011;27703;51.980;5.848;2022-10-22T15:07:03;8.90;;;1.52;;
42018;SDS011;27703;51.980;5.848;2022-10-22T15:09:28;6.30;;;0.63;;
42018;SDS011;27703;51.980;5.848;2022-10-22T15:11:54;4.20;;;0.40;;
42018;SDS011;27703;51.980;5.848;2022-10-22T15:14:20;6.78;;;0.57;;
42018;SDS011;27703;51.980;5.848;2022-10-22T15:16:45;6.95;;;0.65;;
42018;SDS011;27703;51.980;5.848;2022-10-22T15:19:11;6.03;;;0.50;;
42018;SDS011;27703;51.980;5.848;2022-10-22T15:21:36;5.03;;;0.45;;
42018;SDS011;27703;51.980;5.848;2022-10-22T15:24:02;5.45;;;0.50;;
42018;SDS011;27703;51.980;5.848;2022-10-22T15:26:28;10.25;;;0.68;;
42018;SDS011;27703;51.980;5.848;2022-10-22T15:28:54;7.03;;;0.90;;
42018;SDS011;27703;51.980;5.848;2022-10-22T15:31:41;4.28;;;0.30;;
42018;SDS011;27703;51.980;5.848;2022-10-22T15:34:10;6.18;;;0.50;;
42018;SDS011;27703;51.980;5.848;2022-10-22T15:36:36;4.53;;;0.40;;
42018;SDS011;27703;51.980;5.848;2022-10-22T15:39:05;3.22;;;0.30;;
42018;SDS011;27703;51.980;5.848;2022-10-22T15:41:34;6.45;;;0.40;;
42018;SDS011;27703;51.980;5.848;2022-10-22T15:44:00;7.65;;;0.63;;
42018;SDS011;27703;51.980;5.848;2022-10-22T15:46:26;2.63;;;0.25;;
42018;SDS011;27703;51.980;5.848;2022-10-22T15:48:53;3.92;;;0.50;;
42018;SDS011;27703;51.980;5.848;2022-10-22T15:51:19;4.63;;;0.43;;
42018;SDS011;27703;51.980;5.848;2022-10-22T15:53:49;7.22;;;0.40;;
42018;SDS011;27703;51.980;5.848;2022-10-22T15:56:16;2.55;;;0.32;;
42018;SDS011;27703;51.980;5.848;2022-10-22T15:58:41;5.97;;;1.20;;
42018;SDS011;27703;51.980;5.848;2022-10-22T16:01:08;6.10;;;0.50;;
42018;SDS011;27703;51.980;5.848;2022-10-22T16:03:35;4.63;;;0.52;;
42018;SDS011;27703;51.980;5.848;2022-10-22T16:06:02;5.78;;;0.50;;
42018;SDS011;27703;51.980;5.848;2022-10-22T16:08:28;4.50;;;0.68;;
42018;SDS011;27703;51.980;5.848;2022-10-22T16:10:54;7.35;;;0.60;;
42018;SDS011;27703;51.980;5.848;2022-10-22T16:13:19;5.38;;;0.85;;
42018;SDS011;27703;51.980;5.848;2022-10-22T16:15:47;3.08;;;0.40;;
42018;SDS011;27703;51.980;5.848;2022-10-22T16:18:13;3.92;;;0.50;;
42018;SDS011;27703;51.980;5.848;2022-10-22T16:20:39;5.15;;;0.57;;
42018;SDS011;27703;51.980;5.848;2022-10-22T16:23:05;4.22;;;0.65;;
42018;SDS011;27703;51.980;5.848;2022-10-22T16:25:37;5.88;;;0.57;;
42018;SDS011;27703;51.980;5.848;2022-10-22T16:28:03;6.28;;;0.95;;
42018;SDS011;27703;51.980;5.848;2022-10-22T16:30:31;5.43;;;0.75;;
42018;SDS011;27703;51.980;5.848;2022-10-22T16:32:58;4.32;;;0.70;;
42018;SDS011;27703;51.980;5.848;2022-10-22T16:35:24;3.08;;;0.70;;
42018;SDS011;27703;51.980;5.848;2022-10-22T16:37:49;5.50;;;1.00;;
42018;SDS011;27703;51.980;5.848;2022-10-22T16:40:15;8.55;;;2.00;;